Time;durP1;ratioP1;P1;durP2;ratioP2;P2;SDS_P1;SDS_P2;PMS_P1;PMS_P2;Temp;Humidity;BMP_temperature;BMP_pressure;BME280_temperature;BME280_humidity;BME280_pressure;Samples;Min_cycle;Max_cycle;Signal;HPM_P1;HPM_P2
2022/05/31 00:01:22;;;;;;;1.60;1.47;;;;;9.10;100871.00;;;;4995560;28;20227;-70
2022/05/31 00:04:08;;;;;;;2.00;1.60;;;;;9.00;100870.00;;;;4996506;28;20591;-69
2022/05/31 00:06:55;;;;;;;1.60;1.50;;;;;9.00;100875.00;;;;4995906;28;20296;-70
2022/05/31 00:09:42;;;;;;;2.17;1.47;;;;;9.00;100859.00;;;;4996149;28;20888;-69
2022/05/31 00:12:28;;;;;;;1.53;1.30;;;;;9.00;100864.00;;;;4987965;28;20330;-69
2022/05/31 00:15:18;;;;;;;1.60;1.40;;;;;8.90;100865.00;;;;4998203;28;20244;-69
2022/05/31 00:18:06;;;;;;;1.47;1.37;;;;;8.90;100856.00;;;;5003328;28;20235;-70
2022/05/31 00:20:53;;;;;;;2.50;1.30;;;;;8.90;100853.00;;;;4998963;28;20325;-69
2022/05/31 00:23:40;;;;;;;2.97;1.30;;;;;8.80;100852.00;;;;5005309;28;20635;-70
2022/05/31 00:26:27;;;;;;;4.07;1.50;;;;;8.80;100854.00;;;;5003255;28;20270;-69
2022/05/31 00:29:14;;;;;;;1.83;1.60;;;;;8.80;100850.00;;;;5004634;28;20273;-69
2022/05/31 00:32:02;;;;;;;3.57;1.60;;;;;8.80;100843.00;;;;5001475;28;20729;-70
2022/05/31 00:34:52;;;;;;;2.53;1.40;;;;;8.80;100850.00;;;;5000832;28;22265;-70
2022/05/31 00:37:38;;;;;;;3.70;1.50;;;;;8.70;100832.00;;;;5000208;28;20825;-70
2022/05/31 00:40:27;;;;;;;1.57;1.47;;;;;8.60;100831.00;;;;5005961;28;20237;-70
2022/05/31 00:43:20;;;;;;;2.00;1.80;;;;;8.60;100829.00;;;;5004882;28;20238;-69
2022/05/31 00:46:06;;;;;;;2.23;1.80;;;;;8.70;100838.00;;;;5003718;28;20230;-69
2022/05/31 00:48:56;;;;;;;2.53;1.77;;;;;8.60;100837.00;;;;5000176;28;20277;-69
2022/05/31 00:51:50;;;;;;;1.57;1.47;;;;;8.60;100837.00;;;;4997498;28;20226;-70
2022/05/31 00:54:47;;;;;;;2.43;1.80;;;;;8.50;100833.00;;;;5006794;28;20225;-69
2022/05/31 00:57:36;;;;;;;2.63;2.00;;;;;8.50;100833.00;;;;5006704;28;20234;-70
2022/05/31 01:00:23;;;;;;;2.17;1.40;;;;;8.40;100838.00;;;;5000785;28;20233;-69
2022/05/31 01:03:13;;;;;;;3.40;1.80;;;;;8.40;100844.00;;;;5003508;28;20258;-69
2022/05/31 01:06:00;;;;;;;3.10;1.60;;;;;8.40;100844.00;;;;5004900;28;20957;-69
2022/05/31 01:08:47;;;;;;;2.27;1.70;;;;;8.40;100843.00;;;;4994924;28;20293;-69
2022/05/31 01:11:38;;;;;;;1.93;1.73;;;;;8.40;100849.00;;;;4985926;28;20222;-69
2022/05/31 01:14:25;;;;;;;1.73;1.63;;;;;8.40;100847.00;;;;4978253;28;20259;-70
2022/05/31 01:17:15;;;;;;;2.87;1.77;;;;;8.30;100851.00;;;;4985806;28;20305;-70
2022/05/31 01:20:05;;;;;;;3.37;2.00;;;;;8.30;100835.00;;;;4990503;28;20377;-70
2022/05/31 01:22:55;;;;;;;4.33;2.20;;;;;8.40;100832.00;;;;4983935;28;20227;-70
2022/05/31 01:25:58;;;;;;;4.57;2.50;;;;;8.30;100830.00;;;;4997265;28;20225;-70
2022/05/31 01:28:54;;;;;;;2.40;2.00;;;;;8.30;100830.00;;;;4997513;28;21661;-70
2022/05/31 01:31:47;;;;;;;2.50;2.00;;;;;8.30;100834.00;;;;4996793;28;20597;-70
2022/05/31 01:34:38;;;;;;;3.33;2.00;;;;;8.30;100836.00;;;;4995125;28;20326;-69
2022/05/31 01:37:34;;;;;;;2.60;1.87;;;;;8.40;100830.00;;;;4995872;28;20281;-69
2022/05/31 01:40:29;;;;;;;3.80;2.20;;;;;8.30;100826.00;;;;5001823;28;20229;-73
2022/05/31 01:43:15;;;;;;;2.10;1.90;;;;;8.30;100801.00;;;;5007182;28;20377;-69
2022/05/31 01:46:06;;;;;;;2.30;2.10;;;;;8.30;100823.00;;;;5000572;28;20226;-70
2022/05/31 01:48:53;;;;;;;2.40;1.97;;;;;8.30;100824.00;;;;5001717;28;20730;-70
2022/05/31 01:51:41;;;;;;;4.73;2.33;;;;;8.40;100826.00;;;;5000747;28;20296;-70
2022/05/31 01:54:29;;;;;;;2.37;2.17;;;;;8.50;100826.00;;;;5005782;28;20293;-69
2022/05/31 01:57:17;;;;;;;4.20;2.57;;;;;8.40;100822.00;;;;5007274;28;20947;-69
2022/05/31 02:00:07;;;;;;;2.53;2.10;;;;;8.50;100818.00;;;;5001529;28;20293;-69
2022/05/31 02:02:57;;;;;;;4.13;2.50;;;;;8.40;100818.00;;;;5002652;28;20231;-70
2022/05/31 02:05:45;;;;;;;2.70;2.37;;;;;8.40;100826.00;;;;5006215;28;20256;-70
2022/05/31 02:08:33;;;;;;;3.90;2.53;;;;;8.40;100810.00;;;;4998462;28;20230;-70
2022/05/31 02:11:21;;;;;;;3.43;2.73;;;;;8.40;100792.00;;;;4987932;28;20239;-70
2022/05/31 02:14:08;;;;;;;3.37;2.57;;;;;8.30;100813.00;;;;4980824;28;20227;-70
2022/05/31 02:16:55;;;;;;;2.83;2.20;;;;;8.30;100817.00;;;;4996944;28;20307;-69
2022/05/31 02:19:41;;;;;;;3.93;2.40;;;;;8.30;100811.00;;;;5005078;28;20778;-70
2022/05/31 02:22:30;;;;;;;4.50;2.47;;;;;8.30;100815.00;;;;5005697;28;20249;-70
2022/05/31 02:25:17;;;;;;;4.00;2.47;;;;;8.20;100809.00;;;;5003820;28;20225;-70
2022/05/31 02:28:05;;;;;;;3.37;2.57;;;;;8.20;100801.00;;;;4987404;28;20226;-70
2022/05/31 02:30:51;;;;;;;4.63;2.57;;;;;8.10;100807.00;;;;4975186;28;20230;-70
2022/05/31 02:33:37;;;;;;;3.77;2.80;;;;;8.10;100798.00;;;;4984934;28;20226;-70
2022/05/31 02:36:24;;;;;;;3.73;2.67;;;;;8.10;100799.00;;;;4983285;28;20245;-70
2022/05/31 02:39:11;;;;;;;3.13;2.43;;;;;8.00;100803.00;;;;4982260;28;20314;-69
2022/05/31 02:41:57;;;;;;;4.13;2.30;;;;;8.00;100804.00;;;;4989024;28;20229;-70
2022/05/31 02:44:45;;;;;;;3.53;3.07;;;;;8.00;100797.00;;;;5001498;28;20280;-70
2022/05/31 02:47:32;;;;;;;3.50;2.80;;;;;7.90;100799.00;;;;4997992;28;20703;-70
2022/05/31 02:50:19;;;;;;;4.30;2.80;;;;;7.90;100797.00;;;;5004564;28;20673;-69
2022/05/31 02:53:05;;;;;;;2.97;2.63;;;;;8.00;100801.00;;;;5000422;28;20284;-70
2022/05/31 02:55:52;;;;;;;4.93;2.80;;;;;7.90;100797.00;;;;4996299;28;20338;-70
2022/05/31 02:58:38;;;;;;;5.53;2.77;;;;;7.90;100797.00;;;;5003349;28;20324;-70
2022/05/31 03:01:27;;;;;;;4.43;3.00;;;;;8.00;100799.00;;;;5007785;28;20675;-70
2022/05/31 03:04:14;;;;;;;4.23;2.80;;;;;7.90;100803.00;;;;5001610;28;20230;-70
2022/05/31 03:07:03;;;;;;;4.47;2.97;;;;;7.90;100795.00;;;;5000281;28;20218;-70
2022/05/31 03:09:49;;;;;;;4.30;2.80;;;;;7.90;100803.00;;;;4979851;28;20235;-69
2022/05/31 03:12:36;;;;;;;3.47;2.53;;;;;7.90;100796.00;;;;4983132;28;20285;-70
2022/05/31 03:15:23;;;;;;;4.07;2.60;;;;;7.90;100794.00;;;;4963279;28;20696;-70
2022/05/31 03:18:15;;;;;;;4.40;3.40;;;;;8.00;100788.00;;;;4985950;28;20227;-71
2022/05/31 03:21:08;;;;;;;4.70;2.97;;;;;8.00;100793.00;;;;4976907;28;20235;-69
2022/05/31 03:23:58;;;;;;;3.90;2.77;;;;;8.00;100796.00;;;;4974969;28;20226;-70
2022/05/31 03:26:45;;;;;;;4.87;3.20;;;;;8.00;100794.00;;;;4984082;28;20354;-70
2022/05/31 03:29:31;;;;;;;5.50;3.57;;;;;8.00;100752.00;;;;4977059;28;20318;-70
2022/05/31 03:32:18;;;;;;;4.27;3.33;;;;;8.00;100786.00;;;;4985965;28;20253;-70
2022/05/31 03:35:08;;;;;;;4.23;2.90;;;;;7.90;100793.00;;;;4995883;28;20221;-70
2022/05/31 03:37:54;;;;;;;4.37;2.93;;;;;8.00;100793.00;;;;4995115;28;20234;-70
2022/05/31 03:41:00;;;;;;;4.03;3.23;;;;;8.00;100788.00;;;;5003617;28;20238;-70
2022/05/31 03:43:46;;;;;;;4.50;3.07;;;;;8.00;100790.00;;;;4986456;28;20241;-70
2022/05/31 03:46:35;;;;;;;5.30;2.87;;;;;8.10;100783.00;;;;4999920;28;20230;-70
2022/05/31 03:49:21;;;;;;;4.33;3.03;;;;;8.10;100789.00;;;;4990814;28;20277;-70
2022/05/31 03:52:09;;;;;;;4.60;3.47;;;;;8.10;100787.00;;;;4994468;28;20234;-70
2022/05/31 03:54:55;;;;;;;7.10;3.30;;;;;8.20;100782.00;;;;4987589;28;20226;-70
2022/05/31 03:57:41;;;;;;;4.73;3.60;;;;;8.30;100783.00;;;;4998564;28;20321;-70
2022/05/31 04:00:27;;;;;;;5.47;3.23;;;;;8.40;100783.00;;;;5000214;28;20740;-71
2022/05/31 04:03:14;;;;;;;5.37;3.60;;;;;8.50;100790.00;;;;4999819;28;20225;-70
2022/05/31 04:06:00;;;;;;;5.67;3.20;;;;;8.50;100787.00;;;;4999476;28;20226;-70
2022/05/31 04:08:49;;;;;;;5.37;3.50;;;;;8.50;100792.00;;;;4994240;28;20230;-70
2022/05/31 04:11:35;;;;;;;5.20;3.67;;;;;8.60;100794.00;;;;4983767;28;20226;-69
2022/05/31 04:14:21;;;;;;;6.70;4.13;;;;;8.60;100782.00;;;;4985230;28;20375;-69
2022/05/31 04:17:07;;;;;;;7.33;3.93;;;;;8.60;100786.00;;;;4983338;28;20739;-69
2022/05/31 04:19:54;;;;;;;5.43;3.53;;;;;8.70;100792.00;;;;4977580;28;20239;-69
2022/05/31 04:22:40;;;;;;;7.13;4.10;;;;;8.90;100786.00;;;;4982615;28;20239;-70
2022/05/31 04:25:27;;;;;;;7.27;4.30;;;;;9.00;100782.00;;;;4998742;28;20226;-69
2022/05/31 04:28:14;;;;;;;5.40;3.90;;;;;9.00;100783.00;;;;4994178;28;20826;-70
2022/05/31 04:31:00;;;;;;;6.37;4.10;;;;;9.10;100777.00;;;;4997191;28;20222;-70
2022/05/31 04:33:46;;;;;;;8.27;4.13;;;;;9.10;100779.00;;;;4983206;28;20230;-70
2022/05/31 04:36:33;;;;;;;7.00;4.43;;;;;9.10;100783.00;;;;5004724;28;20243;-70
2022/05/31 04:39:19;;;;;;;7.47;4.50;;;;;9.20;100794.00;;;;4988409;28;20242;-69
2022/05/31 04:42:09;;;;;;;8.37;4.70;;;;;9.20;100787.00;;;;5000692;28;20270;-69
2022/05/31 04:44:55;;;;;;;7.60;4.77;;;;;9.30;100780.00;;;;5000454;28;20233;-70
2022/05/31 04:47:43;;;;;;;7.33;4.67;;;;;9.40;100783.00;;;;5001445;28;20238;-71
2022/05/31 04:50:29;;;;;;;8.03;4.53;;;;;9.30;100792.00;;;;5000691;28;20277;-70
2022/05/31 04:53:15;;;;;;;7.50;4.33;;;;;9.40;100774.00;;;;5000647;28;20740;-70
2022/05/31 04:56:03;;;;;;;7.20;4.30;;;;;9.50;100780.00;;;;4997661;28;20230;-69
2022/05/31 04:58:52;;;;;;;6.13;4.70;;;;;9.60;100780.00;;;;5000775;28;20263;-71
2022/05/31 05:01:39;;;;;;;6.07;4.37;;;;;9.60;100781.00;;;;5006846;28;20313;-71
2022/05/31 05:04:25;;;;;;;8.30;4.50;;;;;9.70;100774.00;;;;5007315;28;20290;-72
2022/05/31 05:07:12;;;;;;;7.87;4.27;;;;;9.80;100778.00;;;;5004854;28;20697;-69
2022/05/31 05:09:58;;;;;;;6.37;4.10;;;;;9.80;100777.00;;;;4986251;28;20692;-69
2022/05/31 05:12:45;;;;;;;6.13;4.57;;;;;9.80;100787.00;;;;4986504;28;20672;-69
2022/05/31 05:15:32;;;;;;;7.63;4.60;;;;;9.80;100778.00;;;;4980650;28;20234;-70
2022/05/31 05:18:18;;;;;;;7.53;4.60;;;;;9.80;100781.00;;;;5003707;28;20227;-70
2022/05/31 05:21:06;;;;;;;6.20;4.30;;;;;9.80;100776.00;;;;5002605;28;20326;-70
2022/05/31 05:23:52;;;;;;;6.43;4.20;;;;;9.80;100788.00;;;;4976249;28;20228;-71
2022/05/31 05:26:39;;;;;;;6.43;4.30;;;;;9.80;100784.00;;;;4986571;28;20298;-70
2022/05/31 05:32:30;;;;;;;6.03;4.23;;;;;9.90;100783.00;;;;5007322;28;20230;-69
2022/05/31 05:35:16;;;;;;;5.60;4.37;;;;;9.90;100776.00;;;;5001835;28;20696;-69
2022/05/31 05:38:04;;;;;;;5.30;4.17;;;;;9.90;100774.00;;;;5003330;28;20255;-70
2022/05/31 05:40:50;;;;;;;8.17;3.97;;;;;10.00;100783.00;;;;5006654;28;20233;-70
2022/05/31 05:43:36;;;;;;;8.40;4.77;;;;;10.00;100779.00;;;;5000885;28;20226;-69
2022/05/31 05:46:25;;;;;;;6.47;4.33;;;;;10.10;100781.00;;;;5002692;28;20272;-70
2022/05/31 05:49:13;;;;;;;7.33;4.77;;;;;10.10;100774.00;;;;5005979;28;20243;-69
2022/05/31 05:52:00;;;;;;;10.07;6.43;;;;;10.20;100771.00;;;;5007298;28;20720;-70
2022/05/31 05:54:47;;;;;;;10.73;4.40;;;;;10.10;100771.00;;;;5005155;28;20230;-69
2022/05/31 05:57:35;;;;;;;6.70;4.47;;;;;10.20;100776.00;;;;5006907;28;20237;-69
2022/05/31 06:00:21;;;;;;;6.17;3.93;;;;;10.20;100775.00;;;;5006080;28;20743;-70
2022/05/31 06:03:14;;;;;;;6.43;4.43;;;;;10.10;100789.00;;;;4993631;28;20751;-70
2022/05/31 06:06:02;;;;;;;6.27;4.40;;;;;10.20;100781.00;;;;4995117;28;20232;-70
2022/05/31 06:08:54;;;;;;;7.73;4.03;;;;;10.10;100789.00;;;;4991657;28;20720;-70
2022/05/31 06:11:44;;;;;;;5.23;4.00;;;;;10.10;100794.00;;;;4990865;28;20274;-69
2022/05/31 06:14:33;;;;;;;6.67;4.47;;;;;10.20;100788.00;;;;5004898;28;20369;-69
2022/05/31 06:17:23;;;;;;;7.93;4.67;;;;;10.30;100794.00;;;;5003767;28;20230;-70
2022/05/31 06:20:10;;;;;;;9.93;4.97;;;;;10.40;100784.00;;;;4993352;28;20307;-69
2022/05/31 06:22:59;;;;;;;5.27;4.17;;;;;10.60;100787.00;;;;4998535;28;20370;-70
2022/05/31 06:25:45;;;;;;;5.53;4.27;;;;;10.70;100791.00;;;;4998865;28;20267;-69
2022/05/31 06:28:31;;;;;;;6.67;4.90;;;;;10.80;100784.00;;;;4994328;28;20228;-68
2022/05/31 06:31:18;;;;;;;7.40;4.60;;;;;11.00;100784.00;;;;5000701;28;20233;-69
2022/05/31 06:34:04;;;;;;;6.53;3.97;;;;;11.20;100786.00;;;;4997338;28;20338;-69
2022/05/31 06:36:50;;;;;;;8.60;4.50;;;;;11.30;100800.00;;;;5002409;28;20971;-68
2022/05/31 06:39:40;;;;;;;5.63;4.43;;;;;11.50;100802.00;;;;5006242;28;20866;-69
2022/05/31 06:42:26;;;;;;;7.70;4.50;;;;;11.60;100797.00;;;;5005417;28;20241;-69
2022/05/31 06:45:13;;;;;;;6.03;4.50;;;;;11.70;100797.00;;;;5000458;28;20226;-69
2022/05/31 06:47:59;;;;;;;9.23;4.67;;;;;11.70;100792.00;;;;5005144;28;20297;-69
2022/05/31 06:50:45;;;;;;;11.53;4.77;;;;;11.70;100791.00;;;;5003700;28;20261;-69
2022/05/31 06:56:52;;;;;;;7.00;3.93;;;;;11.80;100789.00;;;;5001736;28;20237;-69
2022/05/31 06:59:38;;;;;;;6.13;4.60;;;;;11.70;100788.00;;;;5005177;28;20781;-69
2022/05/31 07:02:25;;;;;;;6.43;4.43;;;;;11.80;100789.00;;;;5001755;28;20369;-69
2022/05/31 07:05:13;;;;;;;9.37;3.90;;;;;11.90;100777.00;;;;5003257;28;20312;-69
2022/05/31 07:08:00;;;;;;;7.57;3.93;;;;;11.90;100780.00;;;;5004410;28;20685;-69
2022/05/31 07:10:46;;;;;;;9.23;5.20;;;;;12.10;100792.00;;;;4990677;28;20236;-69
2022/05/31 07:13:34;;;;;;;6.50;4.53;;;;;11.90;100782.00;;;;5005026;28;20237;-69
2022/05/31 07:16:20;;;;;;;7.70;5.00;;;;;11.90;100789.00;;;;4995171;28;20238;-69
2022/05/31 07:19:06;;;;;;;5.80;4.23;;;;;11.90;100794.00;;;;5001624;28;20253;-69
2022/05/31 07:21:52;;;;;;;7.23;4.20;;;;;12.00;100793.00;;;;4998212;28;20242;-70
2022/05/31 07:24:38;;;;;;;5.47;4.30;;;;;12.00;100794.00;;;;5000942;28;20238;-71
2022/05/31 07:27:25;;;;;;;6.00;4.30;;;;;11.90;100800.00;;;;4990873;28;20753;-71
2022/05/31 07:30:13;;;;;;;6.23;3.67;;;;;11.90;100794.00;;;;4996322;28;20237;-70
2022/05/31 07:33:06;;;;;;;5.13;3.97;;;;;11.80;100796.00;;;;5000163;28;20380;-70
2022/05/31 07:36:12;;;;;;;5.70;3.40;;;;;11.80;100803.00;;;;5002946;28;20245;-70
2022/05/31 07:38:59;;;;;;;4.37;3.67;;;;;11.90;100802.00;;;;5004629;28;20754;-71
2022/05/31 07:41:46;;;;;;;5.57;3.60;;;;;11.80;100803.00;;;;5003459;28;20311;-71
2022/05/31 07:44:32;;;;;;;5.60;3.80;;;;;11.90;100809.00;;;;5004493;28;20230;-71
2022/05/31 07:47:20;;;;;;;4.60;3.73;;;;;12.00;100813.00;;;;5003015;28;20238;-72
2022/05/31 07:50:07;;;;;;;5.13;4.00;;;;;12.00;100807.00;;;;5003484;28;20230;-70
2022/05/31 07:52:53;;;;;;;7.60;4.27;;;;;11.90;100797.00;;;;5002585;28;20233;-67
2022/05/31 07:55:44;;;;;;;5.80;3.77;;;;;11.90;100797.00;;;;5003458;28;20307;-71
2022/05/31 07:58:33;;;;;;;5.10;3.63;;;;;11.80;100789.00;;;;5000352;28;20370;-69
2022/05/31 08:01:24;;;;;;;6.90;4.07;;;;;11.90;100793.00;;;;4999073;28;20241;-71
2022/05/31 08:04:13;;;;;;;5.93;3.57;;;;;11.90;100784.00;;;;5000870;28;20406;-71
2022/05/31 08:07:00;;;;;;;4.33;3.40;;;;;12.00;100797.00;;;;4999887;28;20233;-70
2022/05/31 08:09:46;;;;;;;5.33;4.00;;;;;12.10;100804.00;;;;4992896;28;20231;-70
2022/05/31 08:12:32;;;;;;;6.07;4.00;;;;;12.10;100802.00;;;;4975075;28;20291;-69
2022/05/31 08:15:19;;;;;;;7.13;4.10;;;;;12.20;100809.00;;;;4979647;28;20225;-68
2022/05/31 08:18:05;;;;;;;4.93;3.83;;;;;12.10;100798.00;;;;4984765;28;20766;-69
2022/05/31 08:20:58;;;;;;;8.00;4.40;;;;;12.10;100805.00;;;;4973287;28;20239;-70
2022/05/31 08:23:45;;;;;;;6.17;4.30;;;;;12.10;100810.00;;;;4981614;28;20301;-70
2022/05/31 08:26:31;;;;;;;8.23;4.63;;;;;12.10;100814.00;;;;4981268;28;20226;-70
2022/05/31 08:29:18;;;;;;;9.30;4.23;;;;;12.10;100805.00;;;;4992360;28;20285;-69
2022/05/31 08:32:05;;;;;;;4.30;3.50;;;;;12.20;100804.00;;;;5003470;28;20230;-70
2022/05/31 08:34:51;;;;;;;6.97;4.47;;;;;12.10;100800.00;;;;5002260;28;20233;-69
2022/05/31 08:37:39;;;;;;;5.23;3.63;;;;;12.00;100802.00;;;;5004456;28;20237;-70
2022/05/31 08:40:25;;;;;;;4.50;3.60;;;;;12.00;100808.00;;;;4980363;28;20249;-69
2022/05/31 08:43:14;;;;;;;8.73;3.50;;;;;12.00;100806.00;;;;4982127;28;20235;-69
2022/05/31 08:46:05;;;;;;;5.40;3.53;;;;;12.10;100798.00;;;;4986858;28;20230;-70
2022/05/31 08:48:58;;;;;;;6.23;4.40;;;;;12.00;100790.00;;;;4986940;28;20235;-69
2022/05/31 08:51:54;;;;;;;5.67;3.70;;;;;12.00;100798.00;;;;5002388;28;20229;-69
2022/05/31 08:57:55;;;;;;;6.53;4.33;;;;;12.20;100776.00;;;;4996543;28;20230;-69
2022/05/31 09:00:44;;;;;;;7.77;4.80;;;;;12.30;100778.00;;;;4992670;28;20719;-69
2022/05/31 09:03:35;;;;;;;6.00;4.63;;;;;12.50;100768.00;;;;4996947;28;20273;-69
2022/05/31 09:06:26;;;;;;;6.40;4.20;;;;;12.80;100760.00;;;;4983531;28;20599;-68
2022/05/31 09:09:17;;;;;;;5.87;4.27;;;;;12.90;100753.00;;;;4979404;28;20246;-69
2022/05/31 09:12:10;;;;;;;6.23;4.30;;;;;13.20;100748.00;;;;4999305;28;20229;-69
2022/05/31 09:15:09;;;;;;;7.27;4.77;;;;;13.40;100754.00;;;;4986485;28;20710;-69
2022/05/31 09:18:05;;;;;;;9.50;4.57;;;;;13.50;100757.00;;;;4981374;28;20281;-72
2022/05/31 09:20:54;;;;;;;7.53;4.60;;;;;13.70;100752.00;;;;4977434;28;20579;-71
2022/05/31 09:23:41;;;;;;;9.80;5.23;;;;;14.10;100746.00;;;;4997467;28;20586;-70
2022/05/31 09:27:00;;;;;;;10.23;5.50;;;;;14.50;100751.00;;;;5004612;28;20222;-71
2022/05/31 09:30:01;;;;;;;17.43;4.90;;;;;14.70;100743.00;;;;4986298;28;21595;-72
2022/05/31 09:33:10;;;;;;;7.77;4.90;;;;;14.70;100741.00;;;;5004567;28;20225;-72
2022/05/31 09:36:09;;;;;;;7.23;4.97;;;;;15.10;100748.00;;;;5005536;28;20230;-72
2022/05/31 09:39:20;;;;;;;8.67;4.93;;;;;15.30;100740.00;;;;5005842;28;20238;-72
2022/05/31 09:42:16;;;;;;;9.40;4.77;;;;;15.60;100739.00;;;;5002865;28;20286;-74
2022/05/31 09:45:09;;;;;;;10.40;4.47;;;;;16.10;100745.00;;;;5005956;28;20230;-74
2022/05/31 09:47:57;;;;;;;9.37;4.53;;;;;16.40;100747.00;;;;5000567;28;20664;-71
2022/05/31 09:50:44;;;;;;;10.77;4.10;;;;;16.70;100733.00;;;;5005519;28;20261;-70
2022/05/31 09:59:45;;;;;;;6.10;3.63;;;;;17.50;100746.00;;;;4997866;28;20234;-69
2022/05/31 10:02:36;;;;;;;4.13;3.17;;;;;17.90;100737.00;;;;4995270;28;20364;-71
2022/05/31 10:05:23;;;;;;;3.90;3.30;;;;;17.90;100741.00;;;;4993267;28;20324;-72
2022/05/31 10:08:16;;;;;;;6.17;2.97;;;;;17.80;100743.00;;;;5000417;28;20377;-69
2022/05/31 10:11:06;;;;;;;3.33;2.97;;;;;17.80;100744.00;;;;4994109;28;20740;-71
2022/05/31 10:13:58;;;;;;;5.87;3.97;;;;;17.90;100743.00;;;;5005119;28;20229;-69
2022/05/31 10:16:47;;;;;;;6.33;2.80;;;;;18.10;100734.00;;;;5002794;28;20244;-68
2022/05/31 10:19:34;;;;;;;4.50;2.60;;;;;17.70;100734.00;;;;4999998;28;20248;-69
2022/05/31 10:22:21;;;;;;;2.77;2.17;;;;;17.30;100732.00;;;;5004769;28;20593;-69
2022/05/31 10:25:19;;;;;;;3.03;2.53;;;;;17.30;100727.00;;;;5001101;28;20577;-69
2022/05/31 10:28:12;;;;;;;5.37;2.60;;;;;17.10;100736.00;;;;5004576;28;20241;-69
2022/05/31 10:31:05;;;;;;;3.10;2.27;;;;;17.50;100731.00;;;;5004966;28;20229;-68
2022/05/31 10:33:55;;;;;;;4.43;2.60;;;;;17.70;100720.00;;;;5003100;28;20279;-69
2022/05/31 10:36:51;;;;;;;4.10;2.50;;;;;18.20;100730.00;;;;5003997;28;20228;-69
2022/05/31 10:39:40;;;;;;;4.13;2.60;;;;;18.40;100712.00;;;;5001832;28;20264;-70
2022/05/31 10:42:30;;;;;;;4.13;2.60;;;;;18.60;100719.00;;;;4997617;28;20240;-69
2022/05/31 10:45:22;;;;;;;4.77;3.00;;;;;18.40;100714.00;;;;4984359;28;20226;-71
2022/05/31 10:48:08;;;;;;;4.33;2.70;;;;;18.30;100714.00;;;;4982101;28;20355;-73
2022/05/31 10:51:01;;;;;;;11.10;3.40;;;;;18.60;100705.00;;;;4985176;28;20239;-69
2022/05/31 10:54:01;;;;;;;4.67;2.97;;;;;19.10;100706.00;;;;4981135;28;20691;-71
2022/05/31 10:56:54;;;;;;;4.70;3.00;;;;;19.50;100708.00;;;;4981234;28;20302;-70
2022/05/31 10:59:47;;;;;;;4.43;3.07;;;;;19.80;100709.00;;;;4974680;28;20581;-71
2022/05/31 11:02:58;;;;;;;5.20;3.37;;;;;20.10;100714.00;;;;4971053;28;20303;-70
2022/05/31 11:05:55;;;;;;;5.03;3.80;;;;;20.10;100710.00;;;;5001142;28;20905;-70
2022/05/31 11:12:11;;;;;;;5.00;3.40;;;;;20.20;100718.00;;;;4998152;28;20226;-70
2022/05/31 11:15:09;;;;;;;4.63;3.00;;;;;20.20;100705.00;;;;4983152;28;20235;-69
2022/05/31 11:18:15;;;;;;;6.30;3.50;;;;;20.10;100716.00;;;;4983138;28;20707;-68
2022/05/31 11:21:11;;;;;;;3.60;2.80;;;;;19.90;100722.00;;;;4984593;28;20268;-68
2022/05/31 11:24:10;;;;;;;4.97;3.03;;;;;20.30;100713.00;;;;5005106;28;20374;-69
2022/05/31 11:27:12;;;;;;;4.33;3.17;;;;;20.60;100718.00;;;;4979664;28;20235;-69
2022/05/31 11:30:08;;;;;;;6.03;3.40;;;;;20.50;100704.00;;;;4994414;28;20225;-69
2022/05/31 11:33:19;;;;;;;4.73;3.37;;;;;20.60;100705.00;;;;4977929;28;20300;-69
2022/05/31 11:36:17;;;;;;;6.23;3.50;;;;;20.60;100697.00;;;;4993362;28;20228;-70
2022/05/31 11:39:16;;;;;;;5.77;3.60;;;;;20.80;100704.00;;;;4983622;28;20253;-70
2022/05/31 11:42:17;;;;;;;5.80;2.70;;;;;20.50;100695.00;;;;4974186;28;20235;-70
2022/05/31 11:45:08;;;;;;;3.83;3.30;;;;;20.50;100703.00;;;;4999990;28;20222;-69
2022/05/31 11:48:27;;;;;;;6.20;3.30;;;;;20.70;100698.00;;;;5002902;28;20316;-69
2022/05/31 11:51:24;;;;;;;5.10;3.70;;;;;21.00;100699.00;;;;5003507;28;20222;-70
2022/05/31 11:54:43;;;;;;;5.37;3.60;;;;;21.00;100698.00;;;;4994488;28;20321;-69
2022/05/31 11:57:39;;;;;;;6.07;3.50;;;;;21.20;100698.00;;;;5002352;28;20280;-70
2022/05/31 12:00:32;;;;;;;5.00;3.53;;;;;21.20;100692.00;;;;4984326;28;20369;-70
2022/05/31 12:03:24;;;;;;;5.27;3.30;;;;;21.10;100700.00;;;;4999902;28;20717;-69
2022/05/31 12:06:19;;;;;;;7.43;3.17;;;;;21.20;100688.00;;;;4998174;28;20242;-70
2022/05/31 12:09:14;;;;;;;3.30;2.63;;;;;21.40;100682.00;;;;5003983;28;20238;-69
2022/05/31 12:12:05;;;;;;;2.77;2.40;;;;;21.50;100680.00;;;;5000246;28;20697;-71
2022/05/31 12:14:54;;;;;;;3.27;2.50;;;;;21.70;100693.00;;;;5002116;28;20226;-71
2022/05/31 12:17:53;;;;;;;3.40;2.20;;;;;21.80;100691.00;;;;5003672;28;20298;-71
2022/05/31 12:20:44;;;;;;;2.97;2.20;;;;;22.00;100681.00;;;;5002093;28;20286;-71
2022/05/31 12:23:35;;;;;;;4.83;2.30;;;;;22.30;100680.00;;;;5002471;28;20644;-70
2022/05/31 12:26:29;;;;;;;3.20;2.40;;;;;22.30;100681.00;;;;5002895;28;20234;-71
2022/05/31 12:29:22;;;;;;;4.63;2.53;;;;;22.70;100673.00;;;;5000148;28;20231;-72
2022/05/31 12:32:30;;;;;;;3.90;2.37;;;;;22.70;100681.00;;;;4997848;28;20749;-70
2022/05/31 12:35:52;;;;;;;2.67;2.00;;;;;23.00;100678.00;;;;5007172;28;20689;-72
2022/05/31 12:39:02;;;;;;;4.00;2.13;;;;;204.60;224519.00;;;;5005956;28;20890;-71
2022/05/31 12:41:50;;;;;;;5.33;2.10;;;;;204.60;224519.00;;;;5001315;28;20323;-71
2022/05/31 12:44:38;;;;;;;2.40;1.87;;;;;204.60;224519.00;;;;5006088;28;20260;-71
2022/05/31 12:47:30;;;;;;;5.20;2.13;;;;;23.40;100549.00;;;;5005308;28;20605;-71
2022/05/31 12:50:48;;;;;;;2.63;1.80;;;;;23.60;100667.00;;;;5004080;28;20240;-71
2022/05/31 12:54:20;;;;;;;1.67;1.57;;;;;22.80;100667.00;;;;4994005;28;20312;-69
2022/05/31 12:57:21;;;;;;;2.00;1.80;;;;;22.20;100656.00;;;;4986117;28;20323;-69
2022/05/31 13:00:29;;;;;;;1.77;1.60;;;;;22.70;100671.00;;;;4999746;28;20237;-69
2022/05/31 13:03:54;;;;;;;2.20;1.90;;;;;23.50;100665.00;;;;4977889;28;20231;-71
2022/05/31 13:07:00;;;;;;;3.40;1.80;;;;;23.60;100659.00;;;;4983513;28;20238;-70
2022/05/31 13:09:47;;;;;;;2.90;2.10;;;;;23.80;100662.00;;;;4978922;28;20254;-72
2022/05/31 13:22:07;;;;;;;3.87;2.30;;;;;24.10;100646.00;;;;5003059;28;20892;-69
2022/05/31 13:25:02;;;;;;;2.53;1.80;;;;;24.30;100647.00;;;;5003072;28;20238;-73
2022/05/31 13:27:52;;;;;;;2.50;2.07;;;;;24.20;100652.00;;;;4977186;28;20254;-71
2022/05/31 13:30:43;;;;;;;2.00;1.80;;;;;23.90;100641.00;;;;5001944;28;20242;-72
2022/05/31 13:33:31;;;;;;;2.33;1.83;;;;;24.70;100647.00;;;;4999740;28;20242;-69
2022/05/31 13:36:22;;;;;;;2.53;1.80;;;;;25.40;100641.00;;;;5000725;28;20312;-70
2022/05/31 13:39:13;;;;;;;3.60;2.10;;;;;25.10;100641.00;;;;4998979;28;20269;-71
2022/05/31 13:42:02;;;;;;;2.00;1.73;;;;;23.80;100642.00;;;;4998015;28;20235;-71
2022/05/31 13:44:49;;;;;;;2.23;2.00;;;;;23.20;100646.00;;;;4999904;28;20257;-70
2022/05/31 13:47:37;;;;;;;3.83;2.30;;;;;22.60;100646.00;;;;4997787;28;20750;-72
2022/05/31 13:50:38;;;;;;;2.17;1.70;;;;;22.60;100654.00;;;;5003832;28;20234;-71
2022/05/31 13:53:25;;;;;;;3.47;1.90;;;;;22.40;100643.00;;;;4993498;28;20239;-70
2022/05/31 13:56:15;;;;;;;2.50;1.80;;;;;22.10;100639.00;;;;4983709;28;20751;-70
2022/05/31 13:59:02;;;;;;;3.57;1.97;;;;;21.80;100643.00;;;;4980412;28;20395;-71
2022/05/31 14:01:48;;;;;;;5.23;2.00;;;;;21.90;100638.00;;;;4982727;28;21245;-70
2022/05/31 14:04:36;;;;;;;2.70;2.00;;;;;21.60;100641.00;;;;4980331;28;20747;-70
2022/05/31 14:07:30;;;;;;;4.50;1.77;;;;;21.70;100638.00;;;;4987295;28;20723;-69
2022/05/31 14:10:18;;;;;;;2.47;1.60;;;;;21.70;100644.00;;;;4984096;28;20539;-70
2022/05/31 14:13:09;;;;;;;2.80;1.70;;;;;21.90;100648.00;;;;5002868;28;20919;-69
2022/05/31 14:16:13;;;;;;;3.17;2.10;;;;;21.60;100655.00;;;;4983723;28;20300;-70
2022/05/31 14:19:00;;;;;;;2.87;2.30;;;;;21.30;100646.00;;;;5003159;28;20241;-70
2022/05/31 14:21:48;;;;;;;2.83;2.00;;;;;21.10;100648.00;;;;5002088;28;20244;-70
2022/05/31 14:24:36;;;;;;;3.17;1.70;;;;;21.00;100655.00;;;;5003557;28;20878;-70
2022/05/31 14:27:26;;;;;;;2.07;1.87;;;;;21.00;100655.00;;;;5004896;28;20280;-70
2022/05/31 14:30:28;;;;;;;3.87;1.87;;;;;20.80;100653.00;;;;5003553;28;20656;-70
2022/05/31 14:33:14;;;;;;;2.57;1.60;;;;;20.80;100656.00;;;;5004813;28;20245;-69
2022/05/31 14:36:01;;;;;;;1.87;1.67;;;;;21.30;100655.00;;;;5004606;28;20765;-70